sensor_id;sensor_type;location;lat;lon;timestamp;P1;durP1;ratioP1;P2;durP2;ratioP2
73760;SDS011;69240;43.530;-5.646;2023-06-14T00:00:20;6.25;;;4.30;;
73760;SDS011;69240;43.530;-5.646;2023-06-14T00:02:45;8.30;;;4.32;;
73760;SDS011;69240;43.530;-5.646;2023-06-14T00:05:11;9.43;;;3.90;;
73760;SDS011;69240;43.530;-5.646;2023-06-14T00:07:40;10.15;;;4.57;;
73760;SDS011;69240;43.530;-5.646;2023-06-14T00:10:10;6.88;;;3.85;;
73760;SDS011;69240;43.530;-5.646;2023-06-14T00:12:38;11.48;;;4.53;;
73760;SDS011;69240;43.530;-5.646;2023-06-14T00:15:04;9.05;;;4.22;;
73760;SDS011;69240;43.530;-5.646;2023-06-14T00:17:30;9.60;;;4.40;;
73760;SDS011;69240;43.530;-5.646;2023-06-14T00:19:56;5.97;;;3.50;;
73760;SDS011;69240;43.530;-5.646;2023-06-14T00:22:23;8.73;;;4.50;;
73760;SDS011;69240;43.530;-5.646;2023-06-14T00:24:53;8.43;;;4.30;;
73760;SDS011;69240;43.530;-5.646;2023-06-14T00:27:19;11.00;;;4.43;;
73760;SDS011;69240;43.530;-5.646;2023-06-14T00:29:45;11.00;;;4.35;;
73760;SDS011;69240;43.530;-5.646;2023-06-14T00:32:10;7.22;;;4.22;;
73760;SDS011;69240;43.530;-5.646;2023-06-14T00:34:36;7.15;;;4.50;;
73760;SDS011;69240;43.530;-5.646;2023-06-14T00:37:01;10.07;;;4.43;;
73760;SDS011;69240;43.530;-5.646;2023-06-14T00:39:27;9.40;;;4.10;;
73760;SDS011;69240;43.530;-5.646;2023-06-14T00:41:52;10.63;;;4.13;;
73760;SDS011;69240;43.530;-5.646;2023-06-14T00:44:18;10.18;;;4.70;;
73760;SDS011;69240;43.530;-5.646;2023-06-14T00:46:46;7.78;;;4.22;;
73760;SDS011;69240;43.530;-5.646;2023-06-14T00:49:12;7.65;;;4.03;;
73760;SDS011;69240;43.530;-5.646;2023-06-14T00:51:40;9.88;;;4.30;;
73760;SDS011;69240;43.530;-5.646;2023-06-14T00:54:06;12.60;;;4.63;;
73760;SDS011;69240;43.530;-5.646;2023-06-14T00:56:32;7.90;;;4.03;;
73760;SDS011;69240;43.530;-5.646;2023-06-14T00:58:58;9.85;;;4.00;;
73760;SDS011;69240;43.530;-5.646;2023-06-14T01:01:23;9.63;;;3.80;;
73760;SDS011;69240;43.530;-5.646;2023-06-14T01:03:49;6.55;;;3.58;;
73760;SDS011;69240;43.530;-5.646;2023-06-14T01:06:35;12.98;;;4.78;;
73760;SDS011;69240;43.530;-5.646;2023-06-14T01:09:16;9.57;;;4.40;;
73760;SDS011;69240;43.530;-5.646;2023-06-14T01:14:21;8.80;;;4.97;;
73760;SDS011;69240;43.530;-5.646;2023-06-14T01:16:47;6.45;;;4.10;;
73760;SDS011;69240;43.530;-5.646;2023-06-14T01:19:18;8.50;;;4.30;;
73760;SDS011;69240;43.530;-5.646;2023-06-14T01:21:47;7.18;;;4.50;;
73760;SDS011;69240;43.530;-5.646;2023-06-14T01:24:16;10.98;;;4.70;;
73760;SDS011;69240;43.530;-5.646;2023-06-14T01:26:44;10.65;;;4.70;;
73760;SDS011;69240;43.530;-5.646;2023-06-14T01:29:12;9.13;;;4.30;;
73760;SDS011;69240;43.530;-5.646;2023-06-14T01:31:42;9.00;;;5.18;;
73760;SDS011;69240;43.530;-5.646;2023-06-14T01:34:08;8.52;;;4.40;;
73760;SDS011;69240;43.530;-5.646;2023-06-14T01:36:33;8.15;;;4.55;;
73760;SDS011;69240;43.530;-5.646;2023-06-14T01:39:02;10.20;;;4.43;;
73760;SDS011;69240;43.530;-5.646;2023-06-14T01:41:29;8.18;;;4.85;;
73760;SDS011;69240;43.530;-5.646;2023-06-14T01:43:55;9.13;;;4.85;;
73760;SDS011;69240;43.530;-5.646;2023-06-14T01:46:23;15.73;;;4.82;;
73760;SDS011;69240;43.530;-5.646;2023-06-14T01:48:48;6.70;;;3.50;;
73760;SDS011;69240;43.530;-5.646;2023-06-14T01:51:15;10.65;;;4.13;;
73760;SDS011;69240;43.530;-5.646;2023-06-14T01:53:40;10.13;;;4.63;;
73760;SDS011;69240;43.530;-5.646;2023-06-14T01:56:06;10.75;;;4.70;;
73760;SDS011;69240;43.530;-5.646;2023-06-14T01:58:32;9.25;;;4.07;;
73760;SDS011;69240;43.530;-5.646;2023-06-14T02:00:58;6.60;;;3.70;;
73760;SDS011;69240;43.530;-5.646;2023-06-14T02:03:25;8.35;;;4.07;;
73760;SDS011;69240;43.530;-5.646;2023-06-14T02:05:52;8.48;;;4.13;;
73760;SDS011;69240;43.530;-5.646;2023-06-14T02:08:19;7.65;;;4.22;;
73760;SDS011;69240;43.530;-5.646;2023-06-14T02:10:44;6.88;;;3.53;;
73760;SDS011;69240;43.530;-5.646;2023-06-14T02:13:10;11.95;;;4.05;;
73760;SDS011;69240;43.530;-5.646;2023-06-14T02:15:36;11.48;;;4.20;;
73760;SDS011;69240;43.530;-5.646;2023-06-14T02:18:02;10.18;;;3.90;;
73760;SDS011;69240;43.530;-5.646;2023-06-14T02:20:28;11.98;;;4.10;;
73760;SDS011;69240;43.530;-5.646;2023-06-14T02:22:54;6.25;;;3.50;;
73760;SDS011;69240;43.530;-5.646;2023-06-14T02:25:20;8.40;;;4.05;;
73760;SDS011;69240;43.530;-5.646;2023-06-14T02:27:45;10.02;;;3.65;;
73760;SDS011;69240;43.530;-5.646;2023-06-14T02:30:11;11.75;;;3.80;;
73760;SDS011;69240;43.530;-5.646;2023-06-14T02:32:37;14.57;;;3.92;;
73760;SDS011;69240;43.530;-5.646;2023-06-14T02:35:03;7.53;;;3.63;;
73760;SDS011;69240;43.530;-5.646;2023-06-14T02:37:29;4.03;;;2.90;;
73760;SDS011;69240;43.530;-5.646;2023-06-14T02:39:55;5.30;;;3.20;;
73760;SDS011;69240;43.530;-5.646;2023-06-14T02:42:21;6.00;;;3.53;;
73760;SDS011;69240;43.530;-5.646;2023-06-14T02:44:46;5.97;;;3.70;;
73760;SDS011;69240;43.530;-5.646;2023-06-14T02:47:16;7.28;;;3.72;;
73760;SDS011;69240;43.530;-5.646;2023-06-14T02:49:42;7.95;;;3.58;;
73760;SDS011;69240;43.530;-5.646;2023-06-14T02:52:08;8.60;;;4.00;;
73760;SDS011;69240;43.530;-5.646;2023-06-14T02:54:34;8.57;;;4.53;;
73760;SDS011;69240;43.530;-5.646;2023-06-14T02:56:59;5.95;;;4.05;;
73760;SDS011;69240;43.530;-5.646;2023-06-14T02:59:25;12.68;;;4.10;;
73760;SDS011;69240;43.530;-5.646;2023-06-14T03:01:51;8.93;;;4.00;;
73760;SDS011;69240;43.530;-5.646;2023-06-14T03:04:17;9.10;;;3.80;;
73760;SDS011;69240;43.530;-5.646;2023-06-14T03:06:42;12.15;;;4.30;;
73760;SDS011;69240;43.530;-5.646;2023-06-14T03:09:09;9.50;;;4.18;;
73760;SDS011;69240;43.530;-5.646;2023-06-14T03:11:34;8.07;;;3.80;;
73760;SDS011;69240;43.530;-5.646;2023-06-14T03:14:01;6.82;;;4.07;;
73760;SDS011;69240;43.530;-5.646;2023-06-14T03:16:28;5.93;;;4.05;;
73760;SDS011;69240;43.530;-5.646;2023-06-14T03:18:55;10.50;;;4.18;;
73760;SDS011;69240;43.530;-5.646;2023-06-14T03:21:20;13.50;;;4.35;;
73760;SDS011;69240;43.530;-5.646;2023-06-14T03:23:46;8.82;;;3.83;;
73760;SDS011;69240;43.530;-5.646;2023-06-14T03:26:13;9.00;;;3.92;;
73760;SDS011;69240;43.530;-5.646;2023-06-14T03:28:46;9.10;;;4.75;;
73760;SDS011;69240;43.530;-5.646;2023-06-14T03:33:39;8.73;;;4.72;;
73760;SDS011;69240;43.530;-5.646;2023-06-14T03:36:05;8.10;;;4.13;;
73760;SDS011;69240;43.530;-5.646;2023-06-14T03:38:31;8.10;;;4.30;;
73760;SDS011;69240;43.530;-5.646;2023-06-14T03:40:57;10.70;;;4.65;;
73760;SDS011;69240;43.530;-5.646;2023-06-14T03:43:23;9.45;;;4.95;;
73760;SDS011;69240;43.530;-5.646;2023-06-14T03:45:49;10.10;;;5.20;;
73760;SDS011;69240;43.530;-5.646;2023-06-14T03:48:14;7.72;;;4.80;;
73760;SDS011;69240;43.530;-5.646;2023-06-14T03:50:40;8.93;;;4.18;;
73760;SDS011;69240;43.530;-5.646;2023-06-14T03:53:07;9.57;;;4.60;;
73760;SDS011;69240;43.530;-5.646;2023-06-14T03:55:33;8.57;;;5.07;;
73760;SDS011;69240;43.530;-5.646;2023-06-14T03:57:59;7.57;;;4.78;;
73760;SDS011;69240;43.530;-5.646;2023-06-14T04:00:24;10.90;;;4.53;;
73760;SDS011;69240;43.530;-5.646;2023-06-14T04:02:51;9.95;;;5.20;;
73760;SDS011;69240;43.530;-5.646;2023-06-14T04:05:16;10.35;;;4.57;;
73760;SDS011;69240;43.530;-5.646;2023-06-14T04:07:44;8.38;;;4.80;;
73760;SDS011;69240;43.530;-5.646;2023-06-14T04:10:14;5.18;;;4.22;;
73760;SDS011;69240;43.530;-5.646;2023-06-14T04:12:41;10.00;;;4.93;;
73760;SDS011;69240;43.530;-5.646;2023-06-14T04:15:07;8.95;;;4.80;;
73760;SDS011;69240;43.530;-5.646;2023-06-14T04:17:34;6.85;;;4.25;;
73760;SDS011;69240;43.530;-5.646;2023-06-14T04:20:00;12.25;;;5.43;;
73760;SDS011;69240;43.530;-5.646;2023-06-14T04:22:28;11.90;;;5.40;;
73760;SDS011;69240;43.530;-5.646;2023-06-14T04:24:55;9.60;;;5.28;;
73760;SDS011;69240;43.530;-5.646;2023-06-14T04:27:25;12.52;;;4.88;;
73760;SDS011;69240;43.530;-5.646;2023-06-14T04:29:52;9.18;;;4.78;;
73760;SDS011;69240;43.530;-5.646;2023-06-14T04:32:27;9.60;;;4.38;;
73760;SDS011;69240;43.530;-5.646;2023-06-14T04:34:58;8.70;;;4.50;;
73760;SDS011;69240;43.530;-5.646;2023-06-14T04:37:27;7.32;;;4.45;;
73760;SDS011;69240;43.530;-5.646;2023-06-14T04:39:54;11.48;;;4.93;;
73760;SDS011;69240;43.530;-5.646;2023-06-14T04:42:21;9.18;;;5.13;;
73760;SDS011;69240;43.530;-5.646;2023-06-14T04:44:50;6.53;;;4.28;;
73760;SDS011;69240;43.530;-5.646;2023-06-14T04:47:16;11.55;;;5.07;;
73760;SDS011;69240;43.530;-5.646;2023-06-14T04:49:43;9.23;;;4.85;;
73760;SDS011;69240;43.530;-5.646;2023-06-14T04:52:08;11.43;;;4.80;;
73760;SDS011;69240;43.530;-5.646;2023-06-14T04:54:35;7.57;;;4.80;;
73760;SDS011;69240;43.530;-5.646;2023-06-14T04:57:03;8.45;;;4.53;;
73760;SDS011;69240;43.530;-5.646;2023-06-14T04:59:31;7.35;;;4.43;;
73760;SDS011;69240;43.530;-5.646;2023-06-14T05:02:00;6.85;;;4.30;;
73760;SDS011;69240;43.530;-5.646;2023-06-14T05:04:27;6.68;;;4.63;;
73760;SDS011;69240;43.530;-5.646;2023-06-14T05:06:53;7.47;;;4.57;;
73760;SDS011;69240;43.530;-5.646;2023-06-14T05:09:22;10.27;;;4.43;;
73760;SDS011;69240;43.530;-5.646;2023-06-14T05:11:50;11.68;;;5.40;;
73760;SDS011;69240;43.530;-5.646;2023-06-14T05:14:19;11.93;;;5.68;;
73760;SDS011;69240;43.530;-5.646;2023-06-14T05:19:25;11.52;;;4.78;;
73760;SDS011;69240;43.530;-5.646;2023-06-14T05:21:51;10.43;;;4.70;;
73760;SDS011;69240;43.530;-5.646;2023-06-14T05:24:18;9.57;;;4.38;;
73760;SDS011;69240;43.530;-5.646;2023-06-14T05:26:53;7.10;;;4.57;;
73760;SDS011;69240;43.530;-5.646;2023-06-14T05:29:19;7.82;;;4.38;;
73760;SDS011;69240;43.530;-5.646;2023-06-14T05:31:45;10.95;;;4.20;;
73760;SDS011;69240;43.530;-5.646;2023-06-14T05:34:11;7.90;;;4.00;;
73760;SDS011;69240;43.530;-5.646;2023-06-14T05:36:36;10.13;;;3.83;;
73760;SDS011;69240;43.530;-5.646;2023-06-14T05:39:02;12.88;;;3.72;;
73760;SDS011;69240;43.530;-5.646;2023-06-14T05:41:28;8.27;;;3.30;;
73760;SDS011;69240;43.530;-5.646;2023-06-14T05:43:55;6.95;;;3.35;;
73760;SDS011;69240;43.530;-5.646;2023-06-14T05:46:21;12.02;;;3.30;;
73760;SDS011;69240;43.530;-5.646;2023-06-14T05:48:49;6.43;;;3.20;;
73760;SDS011;69240;43.530;-5.646;2023-06-14T05:51:16;7.82;;;3.55;;
73760;SDS011;69240;43.530;-5.646;2023-06-14T05:53:44;6.57;;;3.38;;
73760;SDS011;69240;43.530;-5.646;2023-06-14T05:56:12;7.45;;;3.75;;
73760;SDS011;69240;43.530;-5.646;2023-06-14T05:58:38;7.90;;;3.75;;
73760;SDS011;69240;43.530;-5.646;2023-06-14T06:01:04;5.90;;;3.17;;
73760;SDS011;69240;43.530;-5.646;2023-06-14T06:03:30;6.43;;;3.05;;
73760;SDS011;69240;43.530;-5.646;2023-06-14T06:05:55;12.23;;;3.65;;
73760;SDS011;69240;43.530;-5.646;2023-06-14T06:08:21;10.80;;;3.58;;
73760;SDS011;69240;43.530;-5.646;2023-06-14T06:10:46;12.30;;;4.63;;
73760;SDS011;69240;43.530;-5.646;2023-06-14T06:13:12;6.32;;;3.50;;
73760;SDS011;69240;43.530;-5.646;2023-06-14T06:15:37;9.27;;;3.63;;
73760;SDS011;69240;43.530;-5.646;2023-06-14T06:18:03;10.60;;;4.05;;
73760;SDS011;69240;43.530;-5.646;2023-06-14T06:20:29;5.97;;;3.30;;
73760;SDS011;69240;43.530;-5.646;2023-06-14T06:22:59;8.75;;;4.20;;
73760;SDS011;69240;43.530;-5.646;2023-06-14T06:25:26;7.88;;;3.97;;
73760;SDS011;69240;43.530;-5.646;2023-06-14T06:27:52;6.20;;;3.63;;
73760;SDS011;69240;43.530;-5.646;2023-06-14T06:30:19;12.05;;;4.50;;
73760;SDS011;69240;43.530;-5.646;2023-06-14T06:32:45;10.52;;;4.43;;
73760;SDS011;69240;43.530;-5.646;2023-06-14T06:35:11;8.55;;;4.90;;
73760;SDS011;69240;43.530;-5.646;2023-06-14T06:37:38;10.57;;;5.05;;
73760;SDS011;69240;43.530;-5.646;2023-06-14T06:40:04;6.78;;;3.97;;
73760;SDS011;69240;43.530;-5.646;2023-06-14T06:42:31;6.10;;;3.60;;
73760;SDS011;69240;43.530;-5.646;2023-06-14T06:44:57;8.07;;;3.72;;
73760;SDS011;69240;43.530;-5.646;2023-06-14T06:47:22;8.10;;;4.03;;
73760;SDS011;69240;43.530;-5.646;2023-06-14T06:49:48;8.43;;;3.90;;
73760;SDS011;69240;43.530;-5.646;2023-06-14T06:52:14;8.90;;;3.60;;
73760;SDS011;69240;43.530;-5.646;2023-06-14T06:54:40;10.07;;;3.78;;
73760;SDS011;69240;43.530;-5.646;2023-06-14T06:57:05;7.43;;;3.85;;
73760;SDS011;69240;43.530;-5.646;2023-06-14T06:59:31;6.95;;;3.70;;
73760;SDS011;69240;43.530;-5.646;2023-06-14T07:01:58;7.75;;;3.50;;
73760;SDS011;69240;43.530;-5.646;2023-06-14T07:04:23;8.98;;;3.78;;
73760;SDS011;69240;43.530;-5.646;2023-06-14T07:06:49;7.38;;;3.33;;
73760;SDS011;69240;43.530;-5.646;2023-06-14T07:09:14;7.78;;;3.50;;
73760;SDS011;69240;43.530;-5.646;2023-06-14T07:11:42;6.35;;;3.30;;
73760;SDS011;69240;43.530;-5.646;2023-06-14T07:14:08;9.55;;;3.20;;
73760;SDS011;69240;43.530;-5.646;2023-06-14T07:55:02;5.80;;;3.10;;
73760;SDS011;69240;43.530;-5.646;2023-06-14T08:35:10;12.80;;;5.05;;
73760;SDS011;69240;43.530;-5.646;2023-06-14T08:40:44;8.77;;;4.40;;
73760;SDS011;69240;43.530;-5.646;2023-06-14T08:46:40;6.30;;;3.38;;
73760;SDS011;69240;43.530;-5.646;2023-06-14T08:49:07;12.45;;;4.18;;
73760;SDS011;69240;43.530;-5.646;2023-06-14T08:51:36;11.68;;;3.38;;
73760;SDS011;69240;43.530;-5.646;2023-06-14T08:56:49;12.98;;;3.70;;
73760;SDS011;69240;43.530;-5.646;2023-06-14T08:59:16;8.45;;;3.58;;
73760;SDS011;69240;43.530;-5.646;2023-06-14T09:01:43;8.90;;;3.15;;
73760;SDS011;69240;43.530;-5.646;2023-06-14T09:04:10;8.80;;;3.40;;
73760;SDS011;69240;43.530;-5.646;2023-06-14T09:06:36;8.55;;;3.60;;
73760;SDS011;69240;43.530;-5.646;2023-06-14T09:09:02;10.15;;;3.65;;
73760;SDS011;69240;43.530;-5.646;2023-06-14T09:11:29;9.95;;;3.63;;
73760;SDS011;69240;43.530;-5.646;2023-06-14T09:13:55;10.18;;;4.22;;
73760;SDS011;69240;43.530;-5.646;2023-06-14T09:16:21;8.55;;;3.33;;
73760;SDS011;69240;43.530;-5.646;2023-06-14T09:18:46;7.05;;;3.13;;
73760;SDS011;69240;43.530;-5.646;2023-06-14T09:21:13;7.97;;;3.15;;
73760;SDS011;69240;43.530;-5.646;2023-06-14T09:23:41;9.75;;;3.25;;
73760;SDS011;69240;43.530;-5.646;2023-06-14T09:28:47;7.30;;;2.85;;
73760;SDS011;69240;43.530;-5.646;2023-06-14T09:31:14;9.70;;;3.03;;
73760;SDS011;69240;43.530;-5.646;2023-06-14T09:33:47;8.82;;;2.97;;
73760;SDS011;69240;43.530;-5.646;2023-06-14T09:36:18;8.35;;;3.15;;
73760;SDS011;69240;43.530;-5.646;2023-06-14T09:38:53;6.40;;;2.85;;
73760;SDS011;69240;43.530;-5.646;2023-06-14T09:41:19;5.20;;;2.88;;
73760;SDS011;69240;43.530;-5.646;2023-06-14T09:43:46;9.38;;;3.65;;
73760;SDS011;69240;43.530;-5.646;2023-06-14T09:46:12;7.78;;;2.72;;
73760;SDS011;69240;43.530;-5.646;2023-06-14T09:48:38;11.77;;;3.17;;
73760;SDS011;69240;43.530;-5.646;2023-06-14T09:51:07;9.07;;;2.63;;
73760;SDS011;69240;43.530;-5.646;2023-06-14T09:53:35;6.50;;;2.38;;
73760;SDS011;69240;43.530;-5.646;2023-06-14T09:56:02;7.70;;;2.60;;
73760;SDS011;69240;43.530;-5.646;2023-06-14T09:58:30;6.47;;;2.90;;
73760;SDS011;69240;43.530;-5.646;2023-06-14T10:00:57;5.30;;;2.65;;
73760;SDS011;69240;43.530;-5.646;2023-06-14T10:03:25;6.07;;;2.75;;
73760;SDS011;69240;43.530;-5.646;2023-06-14T10:05:54;5.63;;;2.60;;
73760;SDS011;69240;43.530;-5.646;2023-06-14T10:08:23;7.18;;;2.72;;
73760;SDS011;69240;43.530;-5.646;2023-06-14T10:10:53;9.35;;;3.10;;
73760;SDS011;69240;43.530;-5.646;2023-06-14T10:13:20;7.38;;;2.90;;
73760;SDS011;69240;43.530;-5.646;2023-06-14T10:18:53;6.97;;;2.60;;
73760;SDS011;69240;43.530;-5.646;2023-06-14T10:24:23;5.68;;;2.40;;
73760;SDS011;69240;43.530;-5.646;2023-06-14T10:26:59;5.35;;;2.45;;
73760;SDS011;69240;43.530;-5.646;2023-06-14T10:29:26;7.38;;;2.58;;
73760;SDS011;69240;43.530;-5.646;2023-06-14T10:31:58;5.43;;;3.03;;
73760;SDS011;69240;43.530;-5.646;2023-06-14T10:34:34;7.00;;;2.88;;
73760;SDS011;69240;43.530;-5.646;2023-06-14T10:37:05;5.10;;;2.60;;
73760;SDS011;69240;43.530;-5.646;2023-06-14T10:39:32;7.03;;;2.95;;
73760;SDS011;69240;43.530;-5.646;2023-06-14T10:42:06;5.63;;;2.58;;
73760;SDS011;69240;43.530;-5.646;2023-06-14T10:46:58;6.57;;;2.50;;
73760;SDS011;69240;43.530;-5.646;2023-06-14T10:49:38;6.30;;;2.38;;
73760;SDS011;69240;43.530;-5.646;2023-06-14T10:52:19;4.68;;;2.22;;
73760;SDS011;69240;43.530;-5.646;2023-06-14T10:55:06;5.43;;;2.60;;
73760;SDS011;69240;43.530;-5.646;2023-06-14T10:57:57;6.50;;;3.00;;
73760;SDS011;69240;43.530;-5.646;2023-06-14T11:00:27;5.18;;;2.67;;
73760;SDS011;69240;43.530;-5.646;2023-06-14T11:05:55;4.65;;;2.10;;
73760;SDS011;69240;43.530;-5.646;2023-06-14T11:11:10;6.93;;;2.47;;
73760;SDS011;69240;43.530;-5.646;2023-06-14T11:13:41;6.47;;;2.22;;
73760;SDS011;69240;43.530;-5.646;2023-06-14T11:16:16;5.57;;;2.13;;
73760;SDS011;69240;43.530;-5.646;2023-06-14T11:18:44;5.07;;;2.47;;
73760;SDS011;69240;43.530;-5.646;2023-06-14T11:21:10;5.38;;;2.42;;
73760;SDS011;69240;43.530;-5.646;2023-06-14T11:23:36;5.60;;;2.22;;
73760;SDS011;69240;43.530;-5.646;2023-06-14T11:26:02;3.78;;;1.92;;
73760;SDS011;69240;43.530;-5.646;2023-06-14T11:28:49;4.45;;;2.00;;
73760;SDS011;69240;43.530;-5.646;2023-06-14T11:31:23;4.78;;;2.08;;
73760;SDS011;69240;43.530;-5.646;2023-06-14T11:33:50;4.72;;;2.55;;
73760;SDS011;69240;43.530;-5.646;2023-06-14T11:36:16;5.72;;;2.53;;
73760;SDS011;69240;43.530;-5.646;2023-06-14T11:38:42;4.88;;;2.40;;
73760;SDS011;69240;43.530;-5.646;2023-06-14T11:41:07;5.75;;;2.50;;
73760;SDS011;69240;43.530;-5.646;2023-06-14T11:43:33;7.18;;;2.55;;
73760;SDS011;69240;43.530;-5.646;2023-06-14T11:46:00;10.13;;;2.42;;
73760;SDS011;69240;43.530;-5.646;2023-06-14T11:48:36;5.13;;;2.80;;
73760;SDS011;69240;43.530;-5.646;2023-06-14T11:51:03;6.40;;;2.83;;
73760;SDS011;69240;43.530;-5.646;2023-06-14T11:53:30;4.45;;;2.80;;
73760;SDS011;69240;43.530;-5.646;2023-06-14T11:55:56;7.53;;;2.85;;
73760;SDS011;69240;43.530;-5.646;2023-06-14T11:58:22;7.63;;;2.85;;
73760;SDS011;69240;43.530;-5.646;2023-06-14T12:00:48;6.30;;;2.42;;
73760;SDS011;69240;43.530;-5.646;2023-06-14T12:03:14;8.32;;;2.53;;
73760;SDS011;69240;43.530;-5.646;2023-06-14T12:05:40;6.30;;;2.45;;
73760;SDS011;69240;43.530;-5.646;2023-06-14T12:08:05;6.90;;;2.67;;
73760;SDS011;69240;43.530;-5.646;2023-06-14T12:10:42;8.23;;;2.63;;
73760;SDS011;69240;43.530;-5.646;2023-06-14T12:13:10;11.15;;;2.60;;
73760;SDS011;69240;43.530;-5.646;2023-06-14T12:15:36;6.72;;;2.78;;
73760;SDS011;69240;43.530;-5.646;2023-06-14T12:18:04;8.35;;;2.92;;
73760;SDS011;69240;43.530;-5.646;2023-06-14T12:20:32;7.07;;;2.90;;
73760;SDS011;69240;43.530;-5.646;2023-06-14T12:23:02;8.07;;;2.97;;
73760;SDS011;69240;43.530;-5.646;2023-06-14T12:25:29;6.50;;;2.35;;
73760;SDS011;69240;43.530;-5.646;2023-06-14T12:27:57;5.20;;;2.25;;
73760;SDS011;69240;43.530;-5.646;2023-06-14T12:30:23;4.88;;;2.22;;
73760;SDS011;69240;43.530;-5.646;2023-06-14T12:32:49;4.38;;;2.58;;
73760;SDS011;69240;43.530;-5.646;2023-06-14T12:35:16;5.07;;;2.20;;
73760;SDS011;69240;43.530;-5.646;2023-06-14T12:37:43;5.20;;;2.40;;
73760;SDS011;69240;43.530;-5.646;2023-06-14T12:40:09;10.32;;;3.03;;
73760;SDS011;69240;43.530;-5.646;2023-06-14T12:42:36;3.22;;;1.75;;
73760;SDS011;69240;43.530;-5.646;2023-06-14T12:45:02;4.13;;;2.28;;
73760;SDS011;69240;43.530;-5.646;2023-06-14T12:47:27;4.43;;;1.90;;
73760;SDS011;69240;43.530;-5.646;2023-06-14T12:49:53;7.60;;;2.05;;
73760;SDS011;69240;43.530;-5.646;2023-06-14T12:52:18;5.82;;;2.15;;
73760;SDS011;69240;43.530;-5.646;2023-06-14T12:54:44;6.32;;;2.20;;
73760;SDS011;69240;43.530;-5.646;2023-06-14T12:57:10;8.60;;;2.10;;
73760;SDS011;69240;43.530;-5.646;2023-06-14T12:59:36;5.80;;;2.30;;
73760;SDS011;69240;43.530;-5.646;2023-06-14T13:02:12;7.32;;;1.85;;
73760;SDS011;69240;43.530;-5.646;2023-06-14T13:04:38;3.50;;;1.58;;
73760;SDS011;69240;43.530;-5.646;2023-06-14T13:07:04;4.40;;;2.00;;
73760;SDS011;69240;43.530;-5.646;2023-06-14T13:09:30;7.75;;;2.40;;
73760;SDS011;69240;43.530;-5.646;2023-06-14T13:11:56;3.67;;;1.73;;
73760;SDS011;69240;43.530;-5.646;2023-06-14T13:14:21;4.95;;;2.28;;
73760;SDS011;69240;43.530;-5.646;2023-06-14T13:16:47;8.05;;;2.20;;
73760;SDS011;69240;43.530;-5.646;2023-06-14T13:19:13;9.00;;;2.83;;
73760;SDS011;69240;43.530;-5.646;2023-06-14T13:21:39;4.78;;;2.33;;
73760;SDS011;69240;43.530;-5.646;2023-06-14T13:24:04;5.22;;;2.42;;
73760;SDS011;69240;43.530;-5.646;2023-06-14T13:26:30;7.30;;;2.53;;
73760;SDS011;69240;43.530;-5.646;2023-06-14T13:28:57;4.47;;;1.90;;
73760;SDS011;69240;43.530;-5.646;2023-06-14T13:31:23;3.92;;;2.10;;
73760;SDS011;69240;43.530;-5.646;2023-06-14T13:33:49;3.03;;;2.00;;
73760;SDS011;69240;43.530;-5.646;2023-06-14T13:36:14;4.13;;;1.90;;
73760;SDS011;69240;43.530;-5.646;2023-06-14T13:38:40;5.22;;;1.90;;
73760;SDS011;69240;43.530;-5.646;2023-06-14T13:41:05;3.72;;;1.80;;
73760;SDS011;69240;43.530;-5.646;2023-06-14T13:43:31;4.30;;;2.08;;
73760;SDS011;69240;43.530;-5.646;2023-06-14T13:45:57;3.63;;;2.10;;
73760;SDS011;69240;43.530;-5.646;2023-06-14T13:48:22;5.05;;;2.03;;
73760;SDS011;69240;43.530;-5.646;2023-06-14T13:50:48;5.47;;;1.98;;
73760;SDS011;69240;43.530;-5.646;2023-06-14T13:53:14;7.78;;;1.90;;
73760;SDS011;69240;43.530;-5.646;2023-06-14T13:55:40;3.38;;;1.63;;
73760;SDS011;69240;43.530;-5.646;2023-06-14T13:58:05;3.72;;;2.10;;
73760;SDS011;69240;43.530;-5.646;2023-06-14T14:00:31;6.15;;;1.90;;
73760;SDS011;69240;43.530;-5.646;2023-06-14T14:02:57;3.13;;;1.90;;
73760;SDS011;69240;43.530;-5.646;2023-06-14T14:05:24;7.13;;;1.88;;
73760;SDS011;69240;43.530;-5.646;2023-06-14T14:07:54;4.60;;;2.00;;
73760;SDS011;69240;43.530;-5.646;2023-06-14T14:10:21;4.07;;;2.13;;
73760;SDS011;69240;43.530;-5.646;2023-06-14T14:12:48;6.53;;;1.98;;
73760;SDS011;69240;43.530;-5.646;2023-06-14T14:15:14;5.57;;;1.80;;
73760;SDS011;69240;43.530;-5.646;2023-06-14T14:17:39;3.67;;;1.88;;
73760;SDS011;69240;43.530;-5.646;2023-06-14T14:20:06;2.70;;;1.70;;
73760;SDS011;69240;43.530;-5.646;2023-06-14T14:22:32;4.72;;;2.25;;
73760;SDS011;69240;43.530;-5.646;2023-06-14T14:24:58;5.10;;;2.00;;
73760;SDS011;69240;43.530;-5.646;2023-06-14T14:27:23;5.40;;;2.05;;
73760;SDS011;69240;43.530;-5.646;2023-06-14T14:29:49;5.38;;;1.83;;
73760;SDS011;69240;43.530;-5.646;2023-06-14T14:32:14;6.80;;;1.73;;
73760;SDS011;69240;43.530;-5.646;2023-06-14T14:34:40;6.28;;;1.80;;
73760;SDS011;69240;43.530;-5.646;2023-06-14T14:37:06;4.40;;;2.08;;
73760;SDS011;69240;43.530;-5.646;2023-06-14T14:39:31;4.25;;;1.98;;
73760;SDS011;69240;43.530;-5.646;2023-06-14T14:41:57;4.53;;;1.60;;
73760;SDS011;69240;43.530;-5.646;2023-06-14T14:44:23;6.68;;;1.90;;
73760;SDS011;69240;43.530;-5.646;2023-06-14T14:46:49;6.20;;;2.20;;
73760;SDS011;69240;43.530;-5.646;2023-06-14T14:49:14;4.85;;;1.90;;
73760;SDS011;69240;43.530;-5.646;2023-06-14T14:51:40;3.50;;;1.85;;
73760;SDS011;69240;43.530;-5.646;2023-06-14T14:54:06;4.40;;;2.00;;
73760;SDS011;69240;43.530;-5.646;2023-06-14T14:56:31;4.35;;;1.60;;
73760;SDS011;69240;43.530;-5.646;2023-06-14T14:58:57;7.10;;;2.13;;
73760;SDS011;69240;43.530;-5.646;2023-06-14T15:01:23;3.42;;;1.77;;
73760;SDS011;69240;43.530;-5.646;2023-06-14T15:03:48;3.60;;;1.80;;
73760;SDS011;69240;43.530;-5.646;2023-06-14T15:06:14;6.88;;;2.13;;
73760;SDS011;69240;43.530;-5.646;2023-06-14T15:08:39;6.47;;;2.28;;
73760;SDS011;69240;43.530;-5.646;2023-06-14T15:11:05;2.38;;;1.60;;
73760;SDS011;69240;43.530;-5.646;2023-06-14T15:13:31;3.15;;;1.65;;
73760;SDS011;69240;43.530;-5.646;2023-06-14T15:15:57;7.28;;;1.95;;
73760;SDS011;69240;43.530;-5.646;2023-06-14T15:18:23;6.28;;;2.10;;
73760;SDS011;69240;43.530;-5.646;2023-06-14T15:20:48;3.88;;;1.67;;
73760;SDS011;69240;43.530;-5.646;2023-06-14T15:23:14;4.35;;;1.63;;
73760;SDS011;69240;43.530;-5.646;2023-06-14T15:25:44;4.63;;;1.70;;
73760;SDS011;69240;43.530;-5.646;2023-06-14T15:28:11;2.47;;;1.58;;
73760;SDS011;69240;43.530;-5.646;2023-06-14T15:30:36;4.72;;;1.90;;
73760;SDS011;69240;43.530;-5.646;2023-06-14T15:33:02;6.80;;;1.83;;
73760;SDS011;69240;43.530;-5.646;2023-06-14T15:35:27;3.92;;;2.05;;
73760;SDS011;69240;43.530;-5.646;2023-06-14T15:37:53;4.28;;;2.08;;
73760;SDS011;69240;43.530;-5.646;2023-06-14T15:40:24;5.03;;;1.95;;
73760;SDS011;69240;43.530;-5.646;2023-06-14T15:42:51;4.10;;;1.98;;
73760;SDS011;69240;43.530;-5.646;2023-06-14T15:45:16;4.18;;;1.92;;
73760;SDS011;69240;43.530;-5.646;2023-06-14T15:47:42;3.05;;;1.80;;
73760;SDS011;69240;43.530;-5.646;2023-06-14T15:50:07;3.63;;;1.92;;
73760;SDS011;69240;43.530;-5.646;2023-06-14T15:52:33;4.03;;;1.75;;
73760;SDS011;69240;43.530;-5.646;2023-06-14T15:54:59;5.43;;;2.00;;
73760;SDS011;69240;43.530;-5.646;2023-06-14T15:57:25;3.30;;;1.70;;
73760;SDS011;69240;43.530;-5.646;2023-06-14T15:59:51;9.07;;;2.10;;
73760;SDS011;69240;43.530;-5.646;2023-06-14T16:02:17;5.22;;;1.92;;
73760;SDS011;69240;43.530;-5.646;2023-06-14T16:04:42;3.42;;;2.00;;
73760;SDS011;69240;43.530;-5.646;2023-06-14T16:07:08;3.65;;;2.05;;
73760;SDS011;69240;43.530;-5.646;2023-06-14T16:09:33;3.50;;;1.63;;
73760;SDS011;69240;43.530;-5.646;2023-06-14T16:11:59;4.85;;;1.98;;
73760;SDS011;69240;43.530;-5.646;2023-06-14T16:14:26;5.55;;;1.98;;
73760;SDS011;69240;43.530;-5.646;2023-06-14T16:16:52;3.67;;;1.85;;
73760;SDS011;69240;43.530;-5.646;2023-06-14T16:19:17;4.03;;;1.80;;
73760;SDS011;69240;43.530;-5.646;2023-06-14T16:21:43;2.72;;;1.40;;